SHMÚ vydal meteorologické výstrahy na Vietor na horách Display warnings

HYDROLOGICAL WARNING   Povodeň z topiaceho sa snehu a dažďa Level 1 Display warnings

TAF

Aerodrome Forecast TAF

TAF description (Slovak)

25.04.2017 - 11:00 UTC (Včera)

TAF LZSL 251100Z 2512/2521 16005KT 9999 FEW045
    TEMPO 2513/2519 -SHRA SCT038TCU BKN040
    PROB30 TEMPO 2514/2518 -TSRA SCT035CB BKN040=
TAF LZPP 251100Z 2512/2521 16015KT 9999 FEW040 SCT080
    TEMPO 2513/2518 -SHRA SCT038TCU BKN040
    PROB30 TEMPO 2514/2517 -TSRA SCT035CB BKN040=
TAF LZZI 251100Z 2512/2521 24008KT 9999 FEW045 SCT090
    TEMPO 2513/2521 -SHRA SCT040TCU BKN045
    PROB30 TEMPO 2514/2518 -TSRA SCT040CB BKN043=

25.04.2017 - 05:00 UTC (Včera)

TAF AMD LZIB 250522Z 2506/2606 03008KT 9999 BKN012
    BECMG 2507/2509 12012KT FEW035
    TEMPO 2509/2517 15015G25KT
    PROB40 TEMPO 2512/2520 9999 -TSRA FEW040CB SCT070=

skok na menu ↑


skok na začiatok stránky ↑